sensor_id;sensor_type;location;lat;lon;timestamp;P1;durP1;ratioP1;P2;durP2;ratioP2
76725;SDS011;65651;53.154;17.916;2023-07-16T00:00:50;7.20;;;5.70;;
76725;SDS011;65651;53.154;17.916;2023-07-16T00:03:44;8.00;;;5.80;;
76725;SDS011;65651;53.154;17.916;2023-07-16T00:06:12;10.10;;;6.00;;
76725;SDS011;65651;53.154;17.916;2023-07-16T00:08:39;6.40;;;5.80;;
76725;SDS011;65651;53.154;17.916;2023-07-16T00:11:07;8.30;;;6.40;;
76725;SDS011;65651;53.154;17.916;2023-07-16T00:13:34;7.00;;;5.80;;
76725;SDS011;65651;53.154;17.916;2023-07-16T00:16:02;7.20;;;5.70;;
76725;SDS011;65651;53.154;17.916;2023-07-16T00:18:30;7.90;;;6.00;;
76725;SDS011;65651;53.154;17.916;2023-07-16T00:20:58;14.20;;;6.30;;
76725;SDS011;65651;53.154;17.916;2023-07-16T00:23:25;11.00;;;5.70;;
76725;SDS011;65651;53.154;17.916;2023-07-16T00:25:53;8.70;;;6.00;;
76725;SDS011;65651;53.154;17.916;2023-07-16T00:28:20;7.10;;;5.70;;
76725;SDS011;65651;53.154;17.916;2023-07-16T00:30:47;8.00;;;6.50;;
76725;SDS011;65651;53.154;17.916;2023-07-16T00:33:15;8.20;;;5.70;;
76725;SDS011;65651;53.154;17.916;2023-07-16T00:35:48;7.70;;;5.40;;
76725;SDS011;65651;53.154;17.916;2023-07-16T00:38:16;8.40;;;6.20;;
76725;SDS011;65651;53.154;17.916;2023-07-16T00:40:48;7.10;;;5.80;;
76725;SDS011;65651;53.154;17.916;2023-07-16T00:43:15;7.40;;;5.90;;
76725;SDS011;65651;53.154;17.916;2023-07-16T00:45:45;8.00;;;5.80;;
76725;SDS011;65651;53.154;17.916;2023-07-16T00:48:13;6.70;;;5.80;;
76725;SDS011;65651;53.154;17.916;2023-07-16T00:50:41;8.80;;;5.60;;
76725;SDS011;65651;53.154;17.916;2023-07-16T00:53:12;11.30;;;5.60;;
76725;SDS011;65651;53.154;17.916;2023-07-16T00:55:39;8.50;;;5.30;;
76725;SDS011;65651;53.154;17.916;2023-07-16T00:58:06;8.00;;;6.40;;
76725;SDS011;65651;53.154;17.916;2023-07-16T01:00:38;11.00;;;6.70;;
76725;SDS011;65651;53.154;17.916;2023-07-16T01:03:07;8.00;;;5.60;;
76725;SDS011;65651;53.154;17.916;2023-07-16T01:06:00;7.40;;;5.80;;
76725;SDS011;65651;53.154;17.916;2023-07-16T01:08:32;11.10;;;6.30;;
76725;SDS011;65651;53.154;17.916;2023-07-16T01:11:06;7.00;;;6.10;;
76725;SDS011;65651;53.154;17.916;2023-07-16T01:13:34;10.70;;;5.90;;
76725;SDS011;65651;53.154;17.916;2023-07-16T01:16:03;7.20;;;5.30;;
76725;SDS011;65651;53.154;17.916;2023-07-16T01:18:30;9.70;;;5.50;;
76725;SDS011;65651;53.154;17.916;2023-07-16T01:20:58;8.30;;;5.80;;
76725;SDS011;65651;53.154;17.916;2023-07-16T01:32:11;9.80;;;6.40;;
76725;SDS011;65651;53.154;17.916;2023-07-16T01:34:42;8.10;;;6.20;;
76725;SDS011;65651;53.154;17.916;2023-07-16T01:37:11;9.10;;;6.30;;
76725;SDS011;65651;53.154;17.916;2023-07-16T01:39:38;8.60;;;6.10;;
76725;SDS011;65651;53.154;17.916;2023-07-16T01:42:06;8.80;;;6.50;;
76725;SDS011;65651;53.154;17.916;2023-07-16T01:44:33;6.90;;;6.30;;
76725;SDS011;65651;53.154;17.916;2023-07-16T01:47:08;8.10;;;6.50;;
76725;SDS011;65651;53.154;17.916;2023-07-16T01:49:38;8.80;;;6.70;;
76725;SDS011;65651;53.154;17.916;2023-07-16T01:52:06;8.50;;;6.40;;
76725;SDS011;65651;53.154;17.916;2023-07-16T01:54:34;9.20;;;6.20;;
76725;SDS011;65651;53.154;17.916;2023-07-16T01:57:04;12.50;;;6.60;;
76725;SDS011;65651;53.154;17.916;2023-07-16T01:59:32;10.40;;;6.50;;
76725;SDS011;65651;53.154;17.916;2023-07-16T02:01:59;14.70;;;6.40;;
76725;SDS011;65651;53.154;17.916;2023-07-16T02:04:26;9.80;;;6.00;;
76725;SDS011;65651;53.154;17.916;2023-07-16T02:06:54;7.70;;;5.60;;
76725;SDS011;65651;53.154;17.916;2023-07-16T02:09:21;8.80;;;6.10;;
76725;SDS011;65651;53.154;17.916;2023-07-16T02:11:49;8.80;;;6.20;;
76725;SDS011;65651;53.154;17.916;2023-07-16T02:14:16;9.50;;;6.40;;
76725;SDS011;65651;53.154;17.916;2023-07-16T02:16:44;8.10;;;7.00;;
76725;SDS011;65651;53.154;17.916;2023-07-16T02:19:11;8.00;;;6.60;;
76725;SDS011;65651;53.154;17.916;2023-07-16T02:21:39;6.80;;;5.80;;
76725;SDS011;65651;53.154;17.916;2023-07-16T02:24:06;7.70;;;6.50;;
76725;SDS011;65651;53.154;17.916;2023-07-16T02:26:33;8.10;;;5.90;;
76725;SDS011;65651;53.154;17.916;2023-07-16T02:29:01;8.40;;;6.10;;
76725;SDS011;65651;53.154;17.916;2023-07-16T02:31:29;8.30;;;6.20;;
76725;SDS011;65651;53.154;17.916;2023-07-16T02:33:56;7.70;;;5.90;;
76725;SDS011;65651;53.154;17.916;2023-07-16T02:36:23;8.80;;;6.20;;
76725;SDS011;65651;53.154;17.916;2023-07-16T02:38:50;9.90;;;6.60;;
76725;SDS011;65651;53.154;17.916;2023-07-16T02:41:23;7.90;;;6.20;;
76725;SDS011;65651;53.154;17.916;2023-07-16T02:43:58;8.90;;;6.10;;
76725;SDS011;65651;53.154;17.916;2023-07-16T02:46:27;8.20;;;5.90;;
76725;SDS011;65651;53.154;17.916;2023-07-16T02:48:58;7.80;;;6.30;;
76725;SDS011;65651;53.154;17.916;2023-07-16T02:51:25;9.30;;;6.10;;
76725;SDS011;65651;53.154;17.916;2023-07-16T02:53:53;6.90;;;6.00;;
76725;SDS011;65651;53.154;17.916;2023-07-16T02:56:21;9.60;;;5.90;;
76725;SDS011;65651;53.154;17.916;2023-07-16T02:58:48;9.00;;;5.80;;
76725;SDS011;65651;53.154;17.916;2023-07-16T03:01:18;5.80;;;5.10;;
76725;SDS011;65651;53.154;17.916;2023-07-16T03:03:46;6.70;;;5.50;;
76725;SDS011;65651;53.154;17.916;2023-07-16T03:06:13;6.90;;;5.90;;
76725;SDS011;65651;53.154;17.916;2023-07-16T03:08:40;10.40;;;6.20;;
76725;SDS011;65651;53.154;17.916;2023-07-16T03:11:08;8.20;;;6.60;;
76725;SDS011;65651;53.154;17.916;2023-07-16T03:13:35;7.70;;;6.10;;
76725;SDS011;65651;53.154;17.916;2023-07-16T03:16:03;11.40;;;6.30;;
76725;SDS011;65651;53.154;17.916;2023-07-16T03:18:32;7.90;;;7.10;;
76725;SDS011;65651;53.154;17.916;2023-07-16T03:21:02;8.30;;;6.40;;
76725;SDS011;65651;53.154;17.916;2023-07-16T03:23:30;9.70;;;5.90;;
76725;SDS011;65651;53.154;17.916;2023-07-16T03:25:58;6.70;;;6.00;;
76725;SDS011;65651;53.154;17.916;2023-07-16T03:28:26;11.00;;;5.60;;
76725;SDS011;65651;53.154;17.916;2023-07-16T03:30:57;7.50;;;6.10;;
76725;SDS011;65651;53.154;17.916;2023-07-16T03:33:24;9.60;;;6.40;;
76725;SDS011;65651;53.154;17.916;2023-07-16T03:35:51;6.70;;;5.80;;
76725;SDS011;65651;53.154;17.916;2023-07-16T03:38:19;11.60;;;6.20;;
76725;SDS011;65651;53.154;17.916;2023-07-16T03:40:47;7.20;;;5.80;;
76725;SDS011;65651;53.154;17.916;2023-07-16T03:43:16;6.80;;;6.10;;
76725;SDS011;65651;53.154;17.916;2023-07-16T03:45:44;9.40;;;6.50;;
76725;SDS011;65651;53.154;17.916;2023-07-16T03:48:12;10.90;;;6.20;;
76725;SDS011;65651;53.154;17.916;2023-07-16T03:50:39;8.00;;;6.20;;
76725;SDS011;65651;53.154;17.916;2023-07-16T03:53:10;8.00;;;6.30;;
76725;SDS011;65651;53.154;17.916;2023-07-16T03:55:38;8.70;;;7.00;;
76725;SDS011;65651;53.154;17.916;2023-07-16T03:58:07;12.70;;;6.00;;
76725;SDS011;65651;53.154;17.916;2023-07-16T04:00:34;7.20;;;5.40;;
76725;SDS011;65651;53.154;17.916;2023-07-16T04:03:02;9.90;;;5.50;;
76725;SDS011;65651;53.154;17.916;2023-07-16T04:05:29;7.10;;;5.60;;
76725;SDS011;65651;53.154;17.916;2023-07-16T04:07:57;8.40;;;6.10;;
76725;SDS011;65651;53.154;17.916;2023-07-16T04:10:25;6.50;;;4.80;;
76725;SDS011;65651;53.154;17.916;2023-07-16T04:12:52;8.40;;;5.40;;
76725;SDS011;65651;53.154;17.916;2023-07-16T04:15:20;6.80;;;5.10;;
76725;SDS011;65651;53.154;17.916;2023-07-16T04:17:50;8.70;;;5.40;;
76725;SDS011;65651;53.154;17.916;2023-07-16T04:20:17;6.80;;;5.10;;
76725;SDS011;65651;53.154;17.916;2023-07-16T04:22:45;9.80;;;5.50;;
76725;SDS011;65651;53.154;17.916;2023-07-16T04:25:13;7.30;;;5.30;;
76725;SDS011;65651;53.154;17.916;2023-07-16T04:27:40;8.50;;;5.60;;
76725;SDS011;65651;53.154;17.916;2023-07-16T04:30:09;8.80;;;6.50;;
76725;SDS011;65651;53.154;17.916;2023-07-16T04:32:38;7.70;;;5.20;;
76725;SDS011;65651;53.154;17.916;2023-07-16T04:35:06;8.00;;;5.20;;
76725;SDS011;65651;53.154;17.916;2023-07-16T04:37:34;6.50;;;4.80;;
76725;SDS011;65651;53.154;17.916;2023-07-16T04:40:01;5.90;;;5.10;;
76725;SDS011;65651;53.154;17.916;2023-07-16T04:42:29;7.50;;;5.10;;
76725;SDS011;65651;53.154;17.916;2023-07-16T04:44:59;7.20;;;4.90;;
76725;SDS011;65651;53.154;17.916;2023-07-16T04:47:27;6.70;;;4.50;;
76725;SDS011;65651;53.154;17.916;2023-07-16T04:49:54;5.70;;;4.40;;
76725;SDS011;65651;53.154;17.916;2023-07-16T04:52:22;8.30;;;5.20;;
76725;SDS011;65651;53.154;17.916;2023-07-16T04:54:49;8.20;;;5.40;;
76725;SDS011;65651;53.154;17.916;2023-07-16T04:57:16;7.50;;;5.00;;
76725;SDS011;65651;53.154;17.916;2023-07-16T04:59:44;11.40;;;5.30;;
76725;SDS011;65651;53.154;17.916;2023-07-16T05:02:11;6.50;;;5.90;;
76725;SDS011;65651;53.154;17.916;2023-07-16T05:04:41;8.50;;;5.30;;
76725;SDS011;65651;53.154;17.916;2023-07-16T05:07:10;8.00;;;5.40;;
76725;SDS011;65651;53.154;17.916;2023-07-16T05:09:38;6.90;;;5.60;;
76725;SDS011;65651;53.154;17.916;2023-07-16T05:12:06;7.50;;;5.70;;
76725;SDS011;65651;53.154;17.916;2023-07-16T05:14:42;6.80;;;5.10;;
76725;SDS011;65651;53.154;17.916;2023-07-16T05:17:14;6.00;;;4.90;;
76725;SDS011;65651;53.154;17.916;2023-07-16T05:19:42;5.90;;;4.60;;
76725;SDS011;65651;53.154;17.916;2023-07-16T05:22:14;7.80;;;4.50;;
76725;SDS011;65651;53.154;17.916;2023-07-16T05:24:45;4.50;;;4.10;;
76725;SDS011;65651;53.154;17.916;2023-07-16T05:27:12;7.20;;;5.20;;
76725;SDS011;65651;53.154;17.916;2023-07-16T05:29:39;6.90;;;4.30;;
76725;SDS011;65651;53.154;17.916;2023-07-16T05:32:07;6.20;;;4.50;;
76725;SDS011;65651;53.154;17.916;2023-07-16T05:34:35;5.20;;;3.80;;
76725;SDS011;65651;53.154;17.916;2023-07-16T05:37:06;7.30;;;3.50;;
76725;SDS011;65651;53.154;17.916;2023-07-16T05:39:33;5.20;;;3.90;;
76725;SDS011;65651;53.154;17.916;2023-07-16T05:42:01;4.70;;;4.30;;
76725;SDS011;65651;53.154;17.916;2023-07-16T05:44:29;6.90;;;4.20;;
76725;SDS011;65651;53.154;17.916;2023-07-16T05:46:57;5.20;;;4.10;;
76725;SDS011;65651;53.154;17.916;2023-07-16T05:49:25;6.00;;;3.80;;
76725;SDS011;65651;53.154;17.916;2023-07-16T05:51:53;5.20;;;3.70;;
76725;SDS011;65651;53.154;17.916;2023-07-16T05:54:23;5.30;;;3.70;;
76725;SDS011;65651;53.154;17.916;2023-07-16T05:56:51;5.20;;;4.00;;
76725;SDS011;65651;53.154;17.916;2023-07-16T05:59:18;5.20;;;3.40;;
76725;SDS011;65651;53.154;17.916;2023-07-16T06:01:46;4.00;;;3.10;;
76725;SDS011;65651;53.154;17.916;2023-07-16T06:04:13;5.50;;;3.10;;
76725;SDS011;65651;53.154;17.916;2023-07-16T06:06:40;4.10;;;3.80;;
76725;SDS011;65651;53.154;17.916;2023-07-16T06:09:07;3.80;;;3.40;;
76725;SDS011;65651;53.154;17.916;2023-07-16T06:11:34;5.00;;;4.00;;
76725;SDS011;65651;53.154;17.916;2023-07-16T06:14:02;7.10;;;3.60;;
76725;SDS011;65651;53.154;17.916;2023-07-16T06:16:32;7.00;;;3.80;;
76725;SDS011;65651;53.154;17.916;2023-07-16T06:18:59;3.70;;;3.40;;
76725;SDS011;65651;53.154;17.916;2023-07-16T06:21:26;4.10;;;3.40;;
76725;SDS011;65651;53.154;17.916;2023-07-16T06:23:53;5.20;;;3.50;;
76725;SDS011;65651;53.154;17.916;2023-07-16T06:26:21;3.50;;;3.20;;
76725;SDS011;65651;53.154;17.916;2023-07-16T06:28:52;8.00;;;3.20;;
76725;SDS011;65651;53.154;17.916;2023-07-16T06:31:21;5.50;;;3.30;;
76725;SDS011;65651;53.154;17.916;2023-07-16T06:33:48;5.80;;;3.30;;
76725;SDS011;65651;53.154;17.916;2023-07-16T06:36:16;5.10;;;3.50;;
76725;SDS011;65651;53.154;17.916;2023-07-16T06:38:43;4.70;;;3.00;;
76725;SDS011;65651;53.154;17.916;2023-07-16T06:41:11;3.40;;;3.00;;
76725;SDS011;65651;53.154;17.916;2023-07-16T06:43:38;3.30;;;3.00;;
76725;SDS011;65651;53.154;17.916;2023-07-16T06:46:05;5.80;;;2.90;;
76725;SDS011;65651;53.154;17.916;2023-07-16T06:48:33;2.70;;;2.50;;
76725;SDS011;65651;53.154;17.916;2023-07-16T06:51:01;3.70;;;2.80;;
76725;SDS011;65651;53.154;17.916;2023-07-16T06:53:28;3.00;;;2.70;;
76725;SDS011;65651;53.154;17.916;2023-07-16T06:55:55;3.70;;;2.40;;
76725;SDS011;65651;53.154;17.916;2023-07-16T06:58:30;11.30;;;3.00;;
76725;SDS011;65651;53.154;17.916;2023-07-16T07:00:58;5.00;;;2.00;;
76725;SDS011;65651;53.154;17.916;2023-07-16T07:03:28;4.10;;;2.30;;
76725;SDS011;65651;53.154;17.916;2023-07-16T07:05:55;2.70;;;2.10;;
76725;SDS011;65651;53.154;17.916;2023-07-16T07:08:23;5.20;;;2.10;;
76725;SDS011;65651;53.154;17.916;2023-07-16T07:10:50;3.50;;;2.30;;
76725;SDS011;65651;53.154;17.916;2023-07-16T07:13:17;3.00;;;2.10;;
76725;SDS011;65651;53.154;17.916;2023-07-16T07:15:50;5.20;;;2.20;;
76725;SDS011;65651;53.154;17.916;2023-07-16T07:18:18;8.50;;;2.70;;
76725;SDS011;65651;53.154;17.916;2023-07-16T07:20:45;8.10;;;2.90;;
76725;SDS011;65651;53.154;17.916;2023-07-16T07:23:15;3.40;;;2.30;;
76725;SDS011;65651;53.154;17.916;2023-07-16T07:25:43;2.50;;;2.30;;
76725;SDS011;65651;53.154;17.916;2023-07-16T07:28:10;3.00;;;1.70;;
76725;SDS011;65651;53.154;17.916;2023-07-16T07:30:52;3.40;;;2.00;;
76725;SDS011;65651;53.154;17.916;2023-07-16T07:33:22;3.40;;;1.50;;
76725;SDS011;65651;53.154;17.916;2023-07-16T07:35:52;2.50;;;2.30;;
76725;SDS011;65651;53.154;17.916;2023-07-16T07:38:24;2.50;;;2.20;;
76725;SDS011;65651;53.154;17.916;2023-07-16T07:40:55;2.90;;;2.10;;
76725;SDS011;65651;53.154;17.916;2023-07-16T07:43:23;2.80;;;1.60;;
76725;SDS011;65651;53.154;17.916;2023-07-16T07:45:50;2.50;;;1.90;;
76725;SDS011;65651;53.154;17.916;2023-07-16T07:48:18;3.80;;;2.00;;
76725;SDS011;65651;53.154;17.916;2023-07-16T07:50:46;4.70;;;1.80;;
76725;SDS011;65651;53.154;17.916;2023-07-16T07:53:14;3.10;;;1.50;;
76725;SDS011;65651;53.154;17.916;2023-07-16T07:55:47;2.00;;;1.80;;
76725;SDS011;65651;53.154;17.916;2023-07-16T07:58:17;1.80;;;1.20;;
76725;SDS011;65651;53.154;17.916;2023-07-16T08:00:44;2.60;;;1.30;;
76725;SDS011;65651;53.154;17.916;2023-07-16T08:03:11;1.60;;;1.30;;
76725;SDS011;65651;53.154;17.916;2023-07-16T08:05:41;1.90;;;1.70;;
76725;SDS011;65651;53.154;17.916;2023-07-16T08:08:10;3.80;;;1.80;;
76725;SDS011;65651;53.154;17.916;2023-07-16T08:10:37;3.00;;;1.40;;
76725;SDS011;65651;53.154;17.916;2023-07-16T08:13:05;2.30;;;1.60;;
76725;SDS011;65651;53.154;17.916;2023-07-16T08:15:33;2.70;;;1.60;;
76725;SDS011;65651;53.154;17.916;2023-07-16T08:18:01;1.90;;;1.10;;
76725;SDS011;65651;53.154;17.916;2023-07-16T08:20:28;4.60;;;1.40;;
76725;SDS011;65651;53.154;17.916;2023-07-16T08:23:05;2.50;;;1.10;;
76725;SDS011;65651;53.154;17.916;2023-07-16T08:25:40;2.00;;;1.60;;
76725;SDS011;65651;53.154;17.916;2023-07-16T08:28:10;2.90;;;1.40;;
76725;SDS011;65651;53.154;17.916;2023-07-16T08:30:38;2.10;;;1.50;;
76725;SDS011;65651;53.154;17.916;2023-07-16T08:33:06;2.40;;;1.30;;
76725;SDS011;65651;53.154;17.916;2023-07-16T08:35:33;1.70;;;1.50;;
76725;SDS011;65651;53.154;17.916;2023-07-16T08:38:01;1.80;;;1.20;;
76725;SDS011;65651;53.154;17.916;2023-07-16T08:40:29;3.70;;;1.80;;
76725;SDS011;65651;53.154;17.916;2023-07-16T08:42:56;4.00;;;1.30;;
76725;SDS011;65651;53.154;17.916;2023-07-16T08:45:24;2.20;;;1.20;;
76725;SDS011;65651;53.154;17.916;2023-07-16T08:47:56;2.60;;;1.30;;
76725;SDS011;65651;53.154;17.916;2023-07-16T08:50:25;4.90;;;1.40;;
76725;SDS011;65651;53.154;17.916;2023-07-16T08:52:54;1.30;;;0.90;;
76725;SDS011;65651;53.154;17.916;2023-07-16T08:55:22;1.30;;;1.20;;
76725;SDS011;65651;53.154;17.916;2023-07-16T08:57:49;2.00;;;1.30;;
76725;SDS011;65651;53.154;17.916;2023-07-16T09:00:21;5.50;;;1.30;;
76725;SDS011;65651;53.154;17.916;2023-07-16T09:02:53;2.00;;;1.80;;
76725;SDS011;65651;53.154;17.916;2023-07-16T09:05:21;2.60;;;1.70;;
76725;SDS011;65651;53.154;17.916;2023-07-16T09:07:52;2.00;;;1.60;;
76725;SDS011;65651;53.154;17.916;2023-07-16T09:10:20;2.10;;;1.70;;
76725;SDS011;65651;53.154;17.916;2023-07-16T09:12:47;2.80;;;1.50;;
76725;SDS011;65651;53.154;17.916;2023-07-16T09:15:18;3.30;;;2.00;;
76725;SDS011;65651;53.154;17.916;2023-07-16T09:17:46;2.40;;;1.90;;
76725;SDS011;65651;53.154;17.916;2023-07-16T09:20:15;2.90;;;2.00;;
76725;SDS011;65651;53.154;17.916;2023-07-16T09:22:43;2.90;;;1.70;;
76725;SDS011;65651;53.154;17.916;2023-07-16T09:25:11;2.70;;;1.60;;
76725;SDS011;65651;53.154;17.916;2023-07-16T09:27:38;2.50;;;1.90;;
76725;SDS011;65651;53.154;17.916;2023-07-16T09:30:06;3.80;;;2.50;;
76725;SDS011;65651;53.154;17.916;2023-07-16T09:33:13;4.60;;;1.90;;
76725;SDS011;65651;53.154;17.916;2023-07-16T09:35:41;2.40;;;1.70;;
76725;SDS011;65651;53.154;17.916;2023-07-16T09:38:11;3.00;;;1.70;;
76725;SDS011;65651;53.154;17.916;2023-07-16T09:40:48;2.30;;;1.70;;
76725;SDS011;65651;53.154;17.916;2023-07-16T09:43:16;3.90;;;1.90;;
76725;SDS011;65651;53.154;17.916;2023-07-16T09:45:44;2.90;;;1.80;;
76725;SDS011;65651;53.154;17.916;2023-07-16T09:48:12;2.30;;;1.40;;
76725;SDS011;65651;53.154;17.916;2023-07-16T09:50:45;4.40;;;1.90;;
76725;SDS011;65651;53.154;17.916;2023-07-16T09:53:21;2.70;;;1.90;;
76725;SDS011;65651;53.154;17.916;2023-07-16T09:55:48;3.40;;;1.70;;
76725;SDS011;65651;53.154;17.916;2023-07-16T09:58:18;4.10;;;2.00;;
76725;SDS011;65651;53.154;17.916;2023-07-16T10:00:49;5.10;;;2.00;;
76725;SDS011;65651;53.154;17.916;2023-07-16T10:03:18;3.80;;;2.20;;
76725;SDS011;65651;53.154;17.916;2023-07-16T10:05:48;3.40;;;2.70;;
76725;SDS011;65651;53.154;17.916;2023-07-16T10:08:20;4.90;;;2.60;;
76725;SDS011;65651;53.154;17.916;2023-07-16T10:10:54;3.00;;;2.00;;
76725;SDS011;65651;53.154;17.916;2023-07-16T10:13:24;2.90;;;2.00;;
76725;SDS011;65651;53.154;17.916;2023-07-16T10:15:55;4.50;;;2.30;;
76725;SDS011;65651;53.154;17.916;2023-07-16T10:18:25;6.20;;;2.60;;
76725;SDS011;65651;53.154;17.916;2023-07-16T10:21:01;3.90;;;2.30;;
76725;SDS011;65651;53.154;17.916;2023-07-16T10:23:39;2.90;;;2.00;;
76725;SDS011;65651;53.154;17.916;2023-07-16T10:26:09;2.50;;;2.10;;
76725;SDS011;65651;53.154;17.916;2023-07-16T10:28:38;3.20;;;2.70;;
76725;SDS011;65651;53.154;17.916;2023-07-16T10:31:16;2.60;;;2.20;;
76725;SDS011;65651;53.154;17.916;2023-07-16T10:36:29;2.90;;;2.30;;
76725;SDS011;65651;53.154;17.916;2023-07-16T10:39:03;2.60;;;2.30;;
76725;SDS011;65651;53.154;17.916;2023-07-16T10:41:31;4.00;;;2.50;;
76725;SDS011;65651;53.154;17.916;2023-07-16T10:44:00;2.40;;;2.10;;
76725;SDS011;65651;53.154;17.916;2023-07-16T10:46:28;3.00;;;2.50;;
76725;SDS011;65651;53.154;17.916;2023-07-16T10:48:59;4.00;;;2.40;;
76725;SDS011;65651;53.154;17.916;2023-07-16T10:51:27;2.70;;;2.40;;
76725;SDS011;65651;53.154;17.916;2023-07-16T10:53:56;2.80;;;2.40;;
76725;SDS011;65651;53.154;17.916;2023-07-16T10:56:24;6.20;;;2.40;;
76725;SDS011;65651;53.154;17.916;2023-07-16T10:58:52;2.90;;;2.10;;
76725;SDS011;65651;53.154;17.916;2023-07-16T11:01:19;2.60;;;2.00;;
76725;SDS011;65651;53.154;17.916;2023-07-16T11:03:51;2.50;;;2.20;;
76725;SDS011;65651;53.154;17.916;2023-07-16T11:06:18;2.40;;;2.20;;
76725;SDS011;65651;53.154;17.916;2023-07-16T11:08:46;2.80;;;2.20;;
76725;SDS011;65651;53.154;17.916;2023-07-16T11:11:26;2.30;;;2.00;;
76725;SDS011;65651;53.154;17.916;2023-07-16T11:13:55;2.60;;;2.30;;
76725;SDS011;65651;53.154;17.916;2023-07-16T11:16:25;4.30;;;3.10;;
76725;SDS011;65651;53.154;17.916;2023-07-16T11:18:53;3.80;;;2.70;;
76725;SDS011;65651;53.154;17.916;2023-07-16T11:21:20;3.20;;;2.50;;
76725;SDS011;65651;53.154;17.916;2023-07-16T11:23:47;3.20;;;2.80;;
76725;SDS011;65651;53.154;17.916;2023-07-16T11:26:18;2.80;;;2.50;;
76725;SDS011;65651;53.154;17.916;2023-07-16T11:28:49;3.80;;;2.50;;
76725;SDS011;65651;53.154;17.916;2023-07-16T11:31:17;3.20;;;2.60;;
76725;SDS011;65651;53.154;17.916;2023-07-16T11:33:45;3.90;;;2.50;;
76725;SDS011;65651;53.154;17.916;2023-07-16T11:36:12;2.60;;;2.40;;
76725;SDS011;65651;53.154;17.916;2023-07-16T11:38:40;2.40;;;2.10;;
76725;SDS011;65651;53.154;17.916;2023-07-16T11:41:08;2.30;;;2.10;;
76725;SDS011;65651;53.154;17.916;2023-07-16T11:43:36;3.60;;;2.10;;
76725;SDS011;65651;53.154;17.916;2023-07-16T11:46:04;3.60;;;2.40;;
76725;SDS011;65651;53.154;17.916;2023-07-16T11:48:41;2.50;;;2.20;;
76725;SDS011;65651;53.154;17.916;2023-07-16T11:51:08;5.70;;;2.50;;
76725;SDS011;65651;53.154;17.916;2023-07-16T11:53:36;2.50;;;2.20;;
76725;SDS011;65651;53.154;17.916;2023-07-16T11:56:05;4.30;;;2.10;;
76725;SDS011;65651;53.154;17.916;2023-07-16T11:58:32;4.20;;;2.20;;
76725;SDS011;65651;53.154;17.916;2023-07-16T12:00:59;2.90;;;2.30;;
76725;SDS011;65651;53.154;17.916;2023-07-16T12:03:27;3.10;;;2.30;;
76725;SDS011;65651;53.154;17.916;2023-07-16T12:05:54;2.10;;;1.90;;
76725;SDS011;65651;53.154;17.916;2023-07-16T12:08:21;3.00;;;2.20;;
76725;SDS011;65651;53.154;17.916;2023-07-16T12:10:49;2.90;;;2.50;;
76725;SDS011;65651;53.154;17.916;2023-07-16T12:13:16;3.00;;;2.10;;
76725;SDS011;65651;53.154;17.916;2023-07-16T12:15:44;2.60;;;1.90;;
76725;SDS011;65651;53.154;17.916;2023-07-16T12:18:11;4.90;;;2.10;;
76725;SDS011;65651;53.154;17.916;2023-07-16T12:20:38;2.90;;;1.80;;
76725;SDS011;65651;53.154;17.916;2023-07-16T12:23:06;3.60;;;2.00;;
76725;SDS011;65651;53.154;17.916;2023-07-16T12:25:34;2.00;;;1.80;;
76725;SDS011;65651;53.154;17.916;2023-07-16T12:28:02;2.30;;;2.10;;
76725;SDS011;65651;53.154;17.916;2023-07-16T12:30:30;2.30;;;2.10;;
76725;SDS011;65651;53.154;17.916;2023-07-16T12:32:57;2.00;;;1.80;;
76725;SDS011;65651;53.154;17.916;2023-07-16T12:35:24;2.90;;;1.40;;
76725;SDS011;65651;53.154;17.916;2023-07-16T12:37:51;1.70;;;1.20;;
76725;SDS011;65651;53.154;17.916;2023-07-16T12:40:19;1.60;;;1.40;;
76725;SDS011;65651;53.154;17.916;2023-07-16T12:42:46;1.60;;;1.40;;
76725;SDS011;65651;53.154;17.916;2023-07-16T12:45:13;1.90;;;1.50;;
76725;SDS011;65651;53.154;17.916;2023-07-16T12:47:40;1.90;;;1.40;;
76725;SDS011;65651;53.154;17.916;2023-07-16T12:50:08;1.80;;;1.50;;
76725;SDS011;65651;53.154;17.916;2023-07-16T12:52:36;2.00;;;1.50;;
76725;SDS011;65651;53.154;17.916;2023-07-16T12:55:04;2.90;;;1.70;;
76725;SDS011;65651;53.154;17.916;2023-07-16T12:57:32;2.10;;;1.40;;
76725;SDS011;65651;53.154;17.916;2023-07-16T13:00:03;1.60;;;1.50;;
76725;SDS011;65651;53.154;17.916;2023-07-16T13:02:32;1.80;;;1.40;;
76725;SDS011;65651;53.154;17.916;2023-07-16T13:04:59;2.10;;;1.70;;
76725;SDS011;65651;53.154;17.916;2023-07-16T13:07:26;1.90;;;1.50;;
76725;SDS011;65651;53.154;17.916;2023-07-16T13:09:53;2.20;;;1.80;;
76725;SDS011;65651;53.154;17.916;2023-07-16T13:12:21;1.60;;;1.40;;
76725;SDS011;65651;53.154;17.916;2023-07-16T13:14:48;1.90;;;1.60;;
76725;SDS011;65651;53.154;17.916;2023-07-16T13:17:16;1.30;;;1.20;;
76725;SDS011;65651;53.154;17.916;2023-07-16T13:19:45;2.50;;;1.70;;
76725;SDS011;65651;53.154;17.916;2023-07-16T13:22:13;1.80;;;1.30;;
76725;SDS011;65651;53.154;17.916;2023-07-16T13:24:41;2.30;;;1.50;;
76725;SDS011;65651;53.154;17.916;2023-07-16T13:27:22;2.90;;;1.40;;
76725;SDS011;65651;53.154;17.916;2023-07-16T13:29:50;1.30;;;1.10;;
76725;SDS011;65651;53.154;17.916;2023-07-16T13:32:18;1.50;;;1.10;;
76725;SDS011;65651;53.154;17.916;2023-07-16T13:34:45;1.80;;;1.30;;
76725;SDS011;65651;53.154;17.916;2023-07-16T13:37:12;2.10;;;1.40;;
76725;SDS011;65651;53.154;17.916;2023-07-16T13:39:41;2.10;;;1.60;;
76725;SDS011;65651;53.154;17.916;2023-07-16T13:42:08;1.60;;;1.20;;
76725;SDS011;65651;53.154;17.916;2023-07-16T13:44:40;2.20;;;1.70;;
76725;SDS011;65651;53.154;17.916;2023-07-16T13:47:08;3.80;;;1.60;;
76725;SDS011;65651;53.154;17.916;2023-07-16T13:49:35;2.40;;;1.70;;
76725;SDS011;65651;53.154;17.916;2023-07-16T13:52:02;2.40;;;2.00;;
76725;SDS011;65651;53.154;17.916;2023-07-16T13:54:30;1.70;;;1.60;;
76725;SDS011;65651;53.154;17.916;2023-07-16T13:56:58;2.10;;;1.80;;
76725;SDS011;65651;53.154;17.916;2023-07-16T13:59:25;3.00;;;1.60;;
76725;SDS011;65651;53.154;17.916;2023-07-16T14:02:01;2.80;;;2.30;;
76725;SDS011;65651;53.154;17.916;2023-07-16T14:04:30;2.50;;;1.70;;
76725;SDS011;65651;53.154;17.916;2023-07-16T14:06:57;2.10;;;1.90;;
76725;SDS011;65651;53.154;17.916;2023-07-16T14:09:25;2.50;;;1.60;;
76725;SDS011;65651;53.154;17.916;2023-07-16T14:11:52;2.40;;;1.80;;
76725;SDS011;65651;53.154;17.916;2023-07-16T14:14:21;1.60;;;1.50;;
76725;SDS011;65651;53.154;17.916;2023-07-16T14:16:49;2.40;;;1.70;;
76725;SDS011;65651;53.154;17.916;2023-07-16T14:19:16;2.10;;;1.40;;
76725;SDS011;65651;53.154;17.916;2023-07-16T14:21:44;4.40;;;1.90;;
76725;SDS011;65651;53.154;17.916;2023-07-16T14:24:11;3.00;;;1.70;;
76725;SDS011;65651;53.154;17.916;2023-07-16T14:26:38;2.60;;;1.90;;
76725;SDS011;65651;53.154;17.916;2023-07-16T14:29:06;2.40;;;2.00;;
76725;SDS011;65651;53.154;17.916;2023-07-16T14:31:35;2.70;;;1.90;;
76725;SDS011;65651;53.154;17.916;2023-07-16T14:34:02;2.10;;;1.90;;
76725;SDS011;65651;53.154;17.916;2023-07-16T14:36:30;3.00;;;1.90;;
76725;SDS011;65651;53.154;17.916;2023-07-16T14:38:57;2.00;;;1.80;;
76725;SDS011;65651;53.154;17.916;2023-07-16T14:41:24;7.70;;;2.00;;
76725;SDS011;65651;53.154;17.916;2023-07-16T14:43:52;3.30;;;2.30;;
76725;SDS011;65651;53.154;17.916;2023-07-16T14:46:19;2.10;;;1.60;;
76725;SDS011;65651;53.154;17.916;2023-07-16T14:48:47;2.30;;;2.10;;
76725;SDS011;65651;53.154;17.916;2023-07-16T14:51:14;3.60;;;2.30;;
76725;SDS011;65651;53.154;17.916;2023-07-16T14:53:41;3.00;;;2.20;;